sensor_id;sensor_type;location;lat;lon;timestamp;temperature;humidity
37456;DHT22;23316;50.718;7.328;2024-01-15T00:01:11;21.40;35.30
37456;DHT22;23316;50.718;7.328;2024-01-15T00:03:38;21.40;35.30
37456;DHT22;23316;50.718;7.328;2024-01-15T00:06:06;21.40;35.30
37456;DHT22;23316;50.718;7.328;2024-01-15T00:08:33;21.40;35.30
37456;DHT22;23316;50.718;7.328;2024-01-15T00:11:01;21.40;35.30
37456;DHT22;23316;50.718;7.328;2024-01-15T00:13:29;21.40;35.30
37456;DHT22;23316;50.718;7.328;2024-01-15T00:15:56;21.40;35.30
37456;DHT22;23316;50.718;7.328;2024-01-15T00:18:26;21.30;35.20
37456;DHT22;23316;50.718;7.328;2024-01-15T00:20:55;21.30;35.30
37456;DHT22;23316;50.718;7.328;2024-01-15T00:23:22;21.30;35.30
37456;DHT22;23316;50.718;7.328;2024-01-15T00:25:51;21.20;35.30
37456;DHT22;23316;50.718;7.328;2024-01-15T00:28:18;21.20;35.30
37456;DHT22;23316;50.718;7.328;2024-01-15T00:30:45;21.20;35.30
37456;DHT22;23316;50.718;7.328;2024-01-15T00:33:12;21.20;35.30
37456;DHT22;23316;50.718;7.328;2024-01-15T00:35:42;21.10;35.10
37456;DHT22;23316;50.718;7.328;2024-01-15T00:38:09;21.10;35.20
37456;DHT22;23316;50.718;7.328;2024-01-15T00:40:36;21.20;35.20
37456;DHT22;23316;50.718;7.328;2024-01-15T00:43:03;21.20;35.20
37456;DHT22;23316;50.718;7.328;2024-01-15T00:45:33;21.20;35.20
37456;DHT22;23316;50.718;7.328;2024-01-15T00:48:00;21.30;35.30
37456;DHT22;23316;50.718;7.328;2024-01-15T00:50:27;21.30;35.30
37456;DHT22;23316;50.718;7.328;2024-01-15T00:52:56;21.40;35.20
37456;DHT22;23316;50.718;7.328;2024-01-15T00:55:23;21.40;35.30
37456;DHT22;23316;50.718;7.328;2024-01-15T00:57:50;21.40;35.10
37456;DHT22;23316;50.718;7.328;2024-01-15T01:00:18;21.50;35.00
37456;DHT22;23316;50.718;7.328;2024-01-15T01:02:45;21.50;34.90
37456;DHT22;23316;50.718;7.328;2024-01-15T01:05:12;21.60;35.30
37456;DHT22;23316;50.718;7.328;2024-01-15T01:07:39;21.60;34.80
37456;DHT22;23316;50.718;7.328;2024-01-15T01:10:08;21.70;34.70
37456;DHT22;23316;50.718;7.328;2024-01-15T01:12:36;21.70;34.70
37456;DHT22;23316;50.718;7.328;2024-01-15T01:15:04;21.80;34.70
37456;DHT22;23316;50.718;7.328;2024-01-15T01:17:32;21.80;34.70
37456;DHT22;23316;50.718;7.328;2024-01-15T01:19:59;21.80;34.70
37456;DHT22;23316;50.718;7.328;2024-01-15T01:22:30;21.80;34.60
37456;DHT22;23316;50.718;7.328;2024-01-15T01:24:57;21.80;34.70
37456;DHT22;23316;50.718;7.328;2024-01-15T01:27:25;21.80;34.60
37456;DHT22;23316;50.718;7.328;2024-01-15T01:29:53;21.80;34.60
37456;DHT22;23316;50.718;7.328;2024-01-15T01:32:20;21.80;34.60
37456;DHT22;23316;50.718;7.328;2024-01-15T01:34:47;21.80;34.60
37456;DHT22;23316;50.718;7.328;2024-01-15T01:37:14;21.80;34.60
37456;DHT22;23316;50.718;7.328;2024-01-15T01:39:43;21.80;34.60
37456;DHT22;23316;50.718;7.328;2024-01-15T01:42:10;21.70;34.60
37456;DHT22;23316;50.718;7.328;2024-01-15T01:44:39;21.70;34.60
37456;DHT22;23316;50.718;7.328;2024-01-15T01:47:07;21.70;34.70
37456;DHT22;23316;50.718;7.328;2024-01-15T01:49:34;21.70;35.30
37456;DHT22;23316;50.718;7.328;2024-01-15T01:52:03;21.70;34.70
37456;DHT22;23316;50.718;7.328;2024-01-15T01:54:32;21.60;34.70
37456;DHT22;23316;50.718;7.328;2024-01-15T01:57:00;21.60;34.70
37456;DHT22;23316;50.718;7.328;2024-01-15T01:59:30;21.50;34.70
37456;DHT22;23316;50.718;7.328;2024-01-15T02:02:00;21.50;34.70
37456;DHT22;23316;50.718;7.328;2024-01-15T02:04:30;21.50;34.80
37456;DHT22;23316;50.718;7.328;2024-01-15T02:06:59;21.50;34.80
37456;DHT22;23316;50.718;7.328;2024-01-15T02:09:26;21.40;34.90
37456;DHT22;23316;50.718;7.328;2024-01-15T02:11:53;21.40;34.90
37456;DHT22;23316;50.718;7.328;2024-01-15T02:14:21;21.40;34.90
37456;DHT22;23316;50.718;7.328;2024-01-15T02:16:48;21.30;34.90
37456;DHT22;23316;50.718;7.328;2024-01-15T02:19:18;21.30;34.90
37456;DHT22;23316;50.718;7.328;2024-01-15T02:21:45;21.30;34.90
37456;DHT22;23316;50.718;7.328;2024-01-15T02:24:14;21.20;34.90
37456;DHT22;23316;50.718;7.328;2024-01-15T02:26:41;21.20;34.90
37456;DHT22;23316;50.718;7.328;2024-01-15T02:29:09;21.20;34.90
37456;DHT22;23316;50.718;7.328;2024-01-15T02:31:36;21.20;35.00
37456;DHT22;23316;50.718;7.328;2024-01-15T02:34:04;21.20;35.00
37456;DHT22;23316;50.718;7.328;2024-01-15T02:36:31;21.20;34.90
37456;DHT22;23316;50.718;7.328;2024-01-15T02:38:58;21.20;34.90
37456;DHT22;23316;50.718;7.328;2024-01-15T02:41:27;21.30;34.80
37456;DHT22;23316;50.718;7.328;2024-01-15T02:43:54;21.30;34.80
37456;DHT22;23316;50.718;7.328;2024-01-15T02:46:21;21.40;34.70
37456;DHT22;23316;50.718;7.328;2024-01-15T02:48:48;21.40;34.70
37456;DHT22;23316;50.718;7.328;2024-01-15T02:51:15;21.50;34.70
37456;DHT22;23316;50.718;7.328;2024-01-15T02:53:43;21.50;35.00
37456;DHT22;23316;50.718;7.328;2024-01-15T02:56:10;21.60;34.40
37456;DHT22;23316;50.718;7.328;2024-01-15T02:58:39;21.70;34.40
37456;DHT22;23316;50.718;7.328;2024-01-15T03:01:06;21.80;34.40
37456;DHT22;23316;50.718;7.328;2024-01-15T03:03:33;21.80;34.30
37456;DHT22;23316;50.718;7.328;2024-01-15T03:06:01;21.80;34.20
37456;DHT22;23316;50.718;7.328;2024-01-15T03:08:28;21.90;34.30
37456;DHT22;23316;50.718;7.328;2024-01-15T03:10:56;21.90;34.10
37456;DHT22;23316;50.718;7.328;2024-01-15T03:13:26;22.00;34.10
37456;DHT22;23316;50.718;7.328;2024-01-15T03:15:54;21.90;34.00
37456;DHT22;23316;50.718;7.328;2024-01-15T03:18:22;21.90;34.00
37456;DHT22;23316;50.718;7.328;2024-01-15T03:20:49;22.00;34.00
37456;DHT22;23316;50.718;7.328;2024-01-15T03:23:17;22.00;34.00
37456;DHT22;23316;50.718;7.328;2024-01-15T03:25:44;21.90;33.90
37456;DHT22;23316;50.718;7.328;2024-01-15T03:28:11;21.90;33.80
37456;DHT22;23316;50.718;7.328;2024-01-15T03:30:39;21.90;33.80
37456;DHT22;23316;50.718;7.328;2024-01-15T03:33:07;21.90;33.70
37456;DHT22;23316;50.718;7.328;2024-01-15T03:35:34;21.90;33.70
37456;DHT22;23316;50.718;7.328;2024-01-15T03:38:01;21.80;33.60
37456;DHT22;23316;50.718;7.328;2024-01-15T03:40:28;21.80;33.70
37456;DHT22;23316;50.718;7.328;2024-01-15T03:42:55;21.80;33.70
37456;DHT22;23316;50.718;7.328;2024-01-15T03:45:22;21.80;33.80
37456;DHT22;23316;50.718;7.328;2024-01-15T03:47:49;21.70;33.70
37456;DHT22;23316;50.718;7.328;2024-01-15T03:50:18;21.70;33.70
37456;DHT22;23316;50.718;7.328;2024-01-15T03:52:45;21.70;33.70
37456;DHT22;23316;50.718;7.328;2024-01-15T03:55:13;21.60;33.30
37456;DHT22;23316;50.718;7.328;2024-01-15T03:57:40;21.60;32.90
37456;DHT22;23316;50.718;7.328;2024-01-15T04:00:08;21.50;33.00
37456;DHT22;23316;50.718;7.328;2024-01-15T04:02:35;21.50;33.20
37456;DHT22;23316;50.718;7.328;2024-01-15T04:05:03;21.50;33.40
37456;DHT22;23316;50.718;7.328;2024-01-15T04:07:31;21.50;33.70
37456;DHT22;23316;50.718;7.328;2024-01-15T04:09:59;21.40;33.70
37456;DHT22;23316;50.718;7.328;2024-01-15T04:12:26;21.40;33.70
37456;DHT22;23316;50.718;7.328;2024-01-15T04:14:54;21.40;33.80
37456;DHT22;23316;50.718;7.328;2024-01-15T04:17:21;21.40;33.80
37456;DHT22;23316;50.718;7.328;2024-01-15T04:19:48;21.40;33.70
37456;DHT22;23316;50.718;7.328;2024-01-15T04:22:15;21.50;33.80
37456;DHT22;23316;50.718;7.328;2024-01-15T04:24:44;21.50;33.80
37456;DHT22;23316;50.718;7.328;2024-01-15T04:27:11;21.50;33.70
37456;DHT22;23316;50.718;7.328;2024-01-15T04:29:38;21.60;33.70
37456;DHT22;23316;50.718;7.328;2024-01-15T04:32:06;21.60;33.60
37456;DHT22;23316;50.718;7.328;2024-01-15T04:34:33;21.60;33.50
37456;DHT22;23316;50.718;7.328;2024-01-15T04:37:01;21.70;33.50
37456;DHT22;23316;50.718;7.328;2024-01-15T04:39:29;21.70;33.40
37456;DHT22;23316;50.718;7.328;2024-01-15T04:41:58;21.80;33.40
37456;DHT22;23316;50.718;7.328;2024-01-15T04:44:25;21.80;33.30
37456;DHT22;23316;50.718;7.328;2024-01-15T04:46:52;21.80;33.20
37456;DHT22;23316;50.718;7.328;2024-01-15T04:49:19;21.80;33.10
37456;DHT22;23316;50.718;7.328;2024-01-15T04:51:46;21.80;33.10
37456;DHT22;23316;50.718;7.328;2024-01-15T04:54:14;21.80;33.10
37456;DHT22;23316;50.718;7.328;2024-01-15T04:56:43;21.80;33.10
37456;DHT22;23316;50.718;7.328;2024-01-15T04:59:13;21.80;33.10
37456;DHT22;23316;50.718;7.328;2024-01-15T05:01:40;21.80;33.10
37456;DHT22;23316;50.718;7.328;2024-01-15T05:04:07;21.80;33.10
37456;DHT22;23316;50.718;7.328;2024-01-15T05:09:57;21.70;33.10
37456;DHT22;23316;50.718;7.328;2024-01-15T05:12:24;21.70;33.20
37456;DHT22;23316;50.718;7.328;2024-01-15T05:14:53;21.70;33.10
37456;DHT22;23316;50.718;7.328;2024-01-15T05:17:20;21.60;33.10
37456;DHT22;23316;50.718;7.328;2024-01-15T05:19:47;21.60;33.10
37456;DHT22;23316;50.718;7.328;2024-01-15T05:22:15;21.60;33.10
37456;DHT22;23316;50.718;7.328;2024-01-15T05:24:42;21.70;33.10
37456;DHT22;23316;50.718;7.328;2024-01-15T05:27:09;21.70;33.10
37456;DHT22;23316;50.718;7.328;2024-01-15T05:29:36;21.70;33.10
37456;DHT22;23316;50.718;7.328;2024-01-15T05:32:05;21.80;32.90
37456;DHT22;23316;50.718;7.328;2024-01-15T05:34:32;21.80;32.60
37456;DHT22;23316;50.718;7.328;2024-01-15T05:36:59;21.80;32.60
37456;DHT22;23316;50.718;7.328;2024-01-15T05:39:26;21.90;32.60
37456;DHT22;23316;50.718;7.328;2024-01-15T05:41:54;21.90;32.50
37456;DHT22;23316;50.718;7.328;2024-01-15T05:44:21;21.90;32.40
37456;DHT22;23316;50.718;7.328;2024-01-15T05:46:48;22.00;32.50
37456;DHT22;23316;50.718;7.328;2024-01-15T05:49:16;22.00;32.50
37456;DHT22;23316;50.718;7.328;2024-01-15T05:51:43;22.10;32.40
37456;DHT22;23316;50.718;7.328;2024-01-15T05:54:11;22.10;32.40
37456;DHT22;23316;50.718;7.328;2024-01-15T05:56:38;22.10;32.30
37456;DHT22;23316;50.718;7.328;2024-01-15T05:59:05;22.20;32.30
37456;DHT22;23316;50.718;7.328;2024-01-15T06:01:32;22.20;32.30
37456;DHT22;23316;50.718;7.328;2024-01-15T06:03:59;22.20;32.30
37456;DHT22;23316;50.718;7.328;2024-01-15T06:06:28;22.30;32.10
37456;DHT22;23316;50.718;7.328;2024-01-15T06:08:55;22.30;32.10
37456;DHT22;23316;50.718;7.328;2024-01-15T06:11:22;22.30;32.10
37456;DHT22;23316;50.718;7.328;2024-01-15T06:13:49;22.30;32.00
37456;DHT22;23316;50.718;7.328;2024-01-15T06:16:17;22.30;32.00
37456;DHT22;23316;50.718;7.328;2024-01-15T06:18:46;22.30;32.00
37456;DHT22;23316;50.718;7.328;2024-01-15T06:21:13;22.30;31.90
37456;DHT22;23316;50.718;7.328;2024-01-15T06:23:43;22.30;32.10
37456;DHT22;23316;50.718;7.328;2024-01-15T06:26:11;22.30;32.00
37456;DHT22;23316;50.718;7.328;2024-01-15T06:28:39;22.30;32.10
37456;DHT22;23316;50.718;7.328;2024-01-15T06:31:06;22.20;32.00
37456;DHT22;23316;50.718;7.328;2024-01-15T06:33:33;22.20;32.00
37456;DHT22;23316;50.718;7.328;2024-01-15T06:36:00;22.20;32.00
37456;DHT22;23316;50.718;7.328;2024-01-15T06:38:28;22.20;32.10
37456;DHT22;23316;50.718;7.328;2024-01-15T06:40:56;22.10;32.10
37456;DHT22;23316;50.718;7.328;2024-01-15T06:43:23;22.10;32.00
37456;DHT22;23316;50.718;7.328;2024-01-15T06:45:50;22.00;31.90
37456;DHT22;23316;50.718;7.328;2024-01-15T06:48:18;22.00;32.00
37456;DHT22;23316;50.718;7.328;2024-01-15T06:50:45;21.90;32.00
37456;DHT22;23316;50.718;7.328;2024-01-15T06:53:12;21.90;32.10
37456;DHT22;23316;50.718;7.328;2024-01-15T06:55:39;21.80;32.10
37456;DHT22;23316;50.718;7.328;2024-01-15T06:58:08;21.80;32.10
37456;DHT22;23316;50.718;7.328;2024-01-15T07:00:35;21.70;32.20
37456;DHT22;23316;50.718;7.328;2024-01-15T07:03:04;21.70;32.30
37456;DHT22;23316;50.718;7.328;2024-01-15T07:05:31;21.60;32.20
37456;DHT22;23316;50.718;7.328;2024-01-15T07:07:58;21.60;32.30
37456;DHT22;23316;50.718;7.328;2024-01-15T07:10:25;21.60;32.30
37456;DHT22;23316;50.718;7.328;2024-01-15T07:12:53;21.60;32.30
37456;DHT22;23316;50.718;7.328;2024-01-15T07:15:22;21.50;32.30
37456;DHT22;23316;50.718;7.328;2024-01-15T07:17:49;21.50;32.30
37456;DHT22;23316;50.718;7.328;2024-01-15T07:20:16;21.60;32.30
37456;DHT22;23316;50.718;7.328;2024-01-15T07:22:45;21.60;32.30
37456;DHT22;23316;50.718;7.328;2024-01-15T07:25:12;21.60;31.90
37456;DHT22;23316;50.718;7.328;2024-01-15T07:27:39;21.70;31.70
37456;DHT22;23316;50.718;7.328;2024-01-15T07:30:11;21.70;31.70
37456;DHT22;23316;50.718;7.328;2024-01-15T07:32:39;21.70;31.80
37456;DHT22;23316;50.718;7.328;2024-01-15T07:35:07;21.70;31.90
37456;DHT22;23316;50.718;7.328;2024-01-15T07:37:35;21.70;31.90
37456;DHT22;23316;50.718;7.328;2024-01-15T07:40:03;21.80;32.00
37456;DHT22;23316;50.718;7.328;2024-01-15T07:42:32;21.70;31.70
37456;DHT22;23316;50.718;7.328;2024-01-15T07:45:00;21.70;31.30
37456;DHT22;23316;50.718;7.328;2024-01-15T07:47:27;21.70;31.20
37456;DHT22;23316;50.718;7.328;2024-01-15T07:49:56;21.70;31.60
37456;DHT22;23316;50.718;7.328;2024-01-15T07:52:23;21.80;31.50
37456;DHT22;23316;50.718;7.328;2024-01-15T07:54:50;21.80;31.00
37456;DHT22;23316;50.718;7.328;2024-01-15T07:57:17;21.80;30.50
37456;DHT22;23316;50.718;7.328;2024-01-15T07:59:44;21.80;30.20
37456;DHT22;23316;50.718;7.328;2024-01-15T08:02:11;21.80;30.00
37456;DHT22;23316;50.718;7.328;2024-01-15T08:04:39;21.80;29.90
37456;DHT22;23316;50.718;7.328;2024-01-15T08:07:07;21.70;29.70
37456;DHT22;23316;50.718;7.328;2024-01-15T08:09:34;21.70;29.80
37456;DHT22;23316;50.718;7.328;2024-01-15T08:12:02;21.70;30.00
37456;DHT22;23316;50.718;7.328;2024-01-15T08:14:31;21.70;30.10
37456;DHT22;23316;50.718;7.328;2024-01-15T08:16:59;21.60;30.20
37456;DHT22;23316;50.718;7.328;2024-01-15T08:19:27;21.60;30.40
37456;DHT22;23316;50.718;7.328;2024-01-15T08:21:54;21.60;30.60
37456;DHT22;23316;50.718;7.328;2024-01-15T08:24:22;21.60;30.70
37456;DHT22;23316;50.718;7.328;2024-01-15T08:26:50;21.50;30.80
37456;DHT22;23316;50.718;7.328;2024-01-15T08:29:17;21.50;30.90
37456;DHT22;23316;50.718;7.328;2024-01-15T08:31:46;21.50;31.00
37456;DHT22;23316;50.718;7.328;2024-01-15T08:34:14;21.50;31.10
37456;DHT22;23316;50.718;7.328;2024-01-15T08:36:41;21.40;31.00
37456;DHT22;23316;50.718;7.328;2024-01-15T08:39:08;21.40;31.10
37456;DHT22;23316;50.718;7.328;2024-01-15T08:41:37;21.40;31.20
37456;DHT22;23316;50.718;7.328;2024-01-15T08:44:04;21.40;31.50
37456;DHT22;23316;50.718;7.328;2024-01-15T08:46:31;21.30;31.30
37456;DHT22;23316;50.718;7.328;2024-01-15T08:48:58;21.30;31.40
37456;DHT22;23316;50.718;7.328;2024-01-15T08:51:26;21.30;31.40
37456;DHT22;23316;50.718;7.328;2024-01-15T08:53:53;21.30;31.50
37456;DHT22;23316;50.718;7.328;2024-01-15T08:56:21;21.30;31.50
37456;DHT22;23316;50.718;7.328;2024-01-15T08:58:49;21.30;31.50
37456;DHT22;23316;50.718;7.328;2024-01-15T09:01:16;21.40;31.60
37456;DHT22;23316;50.718;7.328;2024-01-15T09:03:44;21.40;31.60
37456;DHT22;23316;50.718;7.328;2024-01-15T09:06:12;21.40;31.60
37456;DHT22;23316;50.718;7.328;2024-01-15T09:08:39;21.50;31.60
37456;DHT22;23316;50.718;7.328;2024-01-15T09:11:06;21.50;31.50
37456;DHT22;23316;50.718;7.328;2024-01-15T09:13:33;21.60;31.60
37456;DHT22;23316;50.718;7.328;2024-01-15T09:16:03;21.60;31.50
37456;DHT22;23316;50.718;7.328;2024-01-15T09:18:30;21.60;31.40
37456;DHT22;23316;50.718;7.328;2024-01-15T09:20:57;21.60;31.40
37456;DHT22;23316;50.718;7.328;2024-01-15T09:23:25;21.70;31.40
37456;DHT22;23316;50.718;7.328;2024-01-15T09:25:52;21.70;31.40
37456;DHT22;23316;50.718;7.328;2024-01-15T09:28:19;21.80;31.30
37456;DHT22;23316;50.718;7.328;2024-01-15T09:30:46;21.80;31.30
37456;DHT22;23316;50.718;7.328;2024-01-15T09:33:15;21.90;31.30
37456;DHT22;23316;50.718;7.328;2024-01-15T09:35:42;21.90;31.20
37456;DHT22;23316;50.718;7.328;2024-01-15T09:38:09;21.90;31.10
37456;DHT22;23316;50.718;7.328;2024-01-15T09:40:38;22.00;31.10
37456;DHT22;23316;50.718;7.328;2024-01-15T09:43:06;22.00;31.00
37456;DHT22;23316;50.718;7.328;2024-01-15T09:45:33;22.00;31.00
37456;DHT22;23316;50.718;7.328;2024-01-15T09:48:00;22.00;30.90
37456;DHT22;23316;50.718;7.328;2024-01-15T09:50:29;22.00;30.90
37456;DHT22;23316;50.718;7.328;2024-01-15T09:52:56;22.00;30.90
37456;DHT22;23316;50.718;7.328;2024-01-15T09:55:24;22.00;30.80
37456;DHT22;23316;50.718;7.328;2024-01-15T09:57:52;22.00;30.80
37456;DHT22;23316;50.718;7.328;2024-01-15T10:00:22;21.90;30.70
37456;DHT22;23316;50.718;7.328;2024-01-15T10:02:50;21.90;30.80
37456;DHT22;23316;50.718;7.328;2024-01-15T10:05:17;21.90;30.70
37456;DHT22;23316;50.718;7.328;2024-01-15T10:07:46;21.90;30.70
37456;DHT22;23316;50.718;7.328;2024-01-15T10:10:15;21.80;30.70
37456;DHT22;23316;50.718;7.328;2024-01-15T10:12:43;21.80;30.70
37456;DHT22;23316;50.718;7.328;2024-01-15T10:15:10;21.80;30.80
37456;DHT22;23316;50.718;7.328;2024-01-15T10:17:38;21.70;30.80
37456;DHT22;23316;50.718;7.328;2024-01-15T10:20:08;21.70;30.90
37456;DHT22;23316;50.718;7.328;2024-01-15T10:22:38;21.70;30.90
37456;DHT22;23316;50.718;7.328;2024-01-15T10:25:10;21.60;30.90
37456;DHT22;23316;50.718;7.328;2024-01-15T10:27:38;21.60;31.50
37456;DHT22;23316;50.718;7.328;2024-01-15T10:30:08;21.60;31.10
37456;DHT22;23316;50.718;7.328;2024-01-15T10:32:35;21.50;31.10
37456;DHT22;23316;50.718;7.328;2024-01-15T10:35:03;21.50;31.10
37456;DHT22;23316;50.718;7.328;2024-01-15T10:37:33;21.50;31.10
37456;DHT22;23316;50.718;7.328;2024-01-15T10:40:01;21.50;31.20
37456;DHT22;23316;50.718;7.328;2024-01-15T10:42:32;21.50;31.20
37456;DHT22;23316;50.718;7.328;2024-01-15T10:45:01;21.50;31.20
37456;DHT22;23316;50.718;7.328;2024-01-15T10:47:29;21.60;31.30
37456;DHT22;23316;50.718;7.328;2024-01-15T10:49:57;21.60;31.20
37456;DHT22;23316;50.718;7.328;2024-01-15T10:52:25;21.60;31.20
37456;DHT22;23316;50.718;7.328;2024-01-15T10:54:53;21.70;31.20
37456;DHT22;23316;50.718;7.328;2024-01-15T10:57:21;21.70;31.10
37456;DHT22;23316;50.718;7.328;2024-01-15T10:59:50;21.70;31.10
37456;DHT22;23316;50.718;7.328;2024-01-15T11:02:17;21.70;31.60
37456;DHT22;23316;50.718;7.328;2024-01-15T11:05:03;21.80;31.10
37456;DHT22;23316;50.718;7.328;2024-01-15T11:07:31;21.80;31.10
37456;DHT22;23316;50.718;7.328;2024-01-15T11:09:58;21.90;31.10
37456;DHT22;23316;50.718;7.328;2024-01-15T11:12:25;21.90;31.00
37456;DHT22;23316;50.718;7.328;2024-01-15T11:15:01;21.90;30.90
37456;DHT22;23316;50.718;7.328;2024-01-15T11:17:59;21.90;30.80
37456;DHT22;23316;50.718;7.328;2024-01-15T11:20:27;21.90;30.80
37456;DHT22;23316;50.718;7.328;2024-01-15T11:22:54;21.90;30.70
37456;DHT22;23316;50.718;7.328;2024-01-15T11:25:23;21.90;30.70
37456;DHT22;23316;50.718;7.328;2024-01-15T11:27:51;21.90;30.70
37456;DHT22;23316;50.718;7.328;2024-01-15T11:30:25;21.90;30.70
37456;DHT22;23316;50.718;7.328;2024-01-15T11:32:52;21.90;30.60
37456;DHT22;23316;50.718;7.328;2024-01-15T11:35:19;21.90;30.60
37456;DHT22;23316;50.718;7.328;2024-01-15T11:37:59;21.90;30.70
37456;DHT22;23316;50.718;7.328;2024-01-15T11:40:37;21.80;30.70
37456;DHT22;23316;50.718;7.328;2024-01-15T11:43:06;21.80;30.60
37456;DHT22;23316;50.718;7.328;2024-01-15T11:45:36;21.80;30.70
37456;DHT22;23316;50.718;7.328;2024-01-15T11:48:12;21.70;30.70
37456;DHT22;23316;50.718;7.328;2024-01-15T11:50:41;21.70;30.70
37456;DHT22;23316;50.718;7.328;2024-01-15T11:53:26;21.70;30.80
37456;DHT22;23316;50.718;7.328;2024-01-15T11:55:58;21.60;30.80
37456;DHT22;23316;50.718;7.328;2024-01-15T11:58:25;21.60;30.80
37456;DHT22;23316;50.718;7.328;2024-01-15T12:00:54;21.50;30.80
37456;DHT22;23316;50.718;7.328;2024-01-15T12:03:21;21.50;30.80
37456;DHT22;23316;50.718;7.328;2024-01-15T12:05:49;21.50;30.90
37456;DHT22;23316;50.718;7.328;2024-01-15T12:08:21;21.50;31.00
37456;DHT22;23316;50.718;7.328;2024-01-15T12:10:48;21.40;31.00
37456;DHT22;23316;50.718;7.328;2024-01-15T12:13:16;21.40;31.00
37456;DHT22;23316;50.718;7.328;2024-01-15T12:15:45;21.50;31.10
37456;DHT22;23316;50.718;7.328;2024-01-15T12:18:15;21.50;31.10
37456;DHT22;23316;50.718;7.328;2024-01-15T12:20:43;21.50;31.00
37456;DHT22;23316;50.718;7.328;2024-01-15T12:23:12;21.60;31.10
37456;DHT22;23316;50.718;7.328;2024-01-15T12:25:40;21.60;31.00
37456;DHT22;23316;50.718;7.328;2024-01-15T12:28:07;21.70;31.00
37456;DHT22;23316;50.718;7.328;2024-01-15T12:30:36;21.70;30.90
37456;DHT22;23316;50.718;7.328;2024-01-15T12:33:04;21.70;30.90
37456;DHT22;23316;50.718;7.328;2024-01-15T12:35:33;21.80;30.90
37456;DHT22;23316;50.718;7.328;2024-01-15T12:38:01;21.90;30.90
37456;DHT22;23316;50.718;7.328;2024-01-15T12:40:30;21.90;30.80
37456;DHT22;23316;50.718;7.328;2024-01-15T12:42:57;22.00;31.30
37456;DHT22;23316;50.718;7.328;2024-01-15T12:45:24;22.10;30.80
37456;DHT22;23316;50.718;7.328;2024-01-15T12:47:52;22.10;30.70
37456;DHT22;23316;50.718;7.328;2024-01-15T12:50:24;22.20;30.60
37456;DHT22;23316;50.718;7.328;2024-01-15T12:52:52;22.20;30.50
37456;DHT22;23316;50.718;7.328;2024-01-15T12:55:20;22.30;30.50
37456;DHT22;23316;50.718;7.328;2024-01-15T12:57:47;22.30;30.40
37456;DHT22;23316;50.718;7.328;2024-01-15T13:00:16;22.30;30.30
37456;DHT22;23316;50.718;7.328;2024-01-15T13:02:43;22.30;30.80
37456;DHT22;23316;50.718;7.328;2024-01-15T13:05:10;22.30;30.70
37456;DHT22;23316;50.718;7.328;2024-01-15T13:07:37;22.30;30.20
37456;DHT22;23316;50.718;7.328;2024-01-15T13:10:07;22.30;30.10
37456;DHT22;23316;50.718;7.328;2024-01-15T13:12:35;22.30;30.10
37456;DHT22;23316;50.718;7.328;2024-01-15T13:15:02;22.20;30.10
37456;DHT22;23316;50.718;7.328;2024-01-15T13:17:30;22.20;30.10
37456;DHT22;23316;50.718;7.328;2024-01-15T13:19:57;22.20;30.10
37456;DHT22;23316;50.718;7.328;2024-01-15T13:22:24;22.10;30.10
37456;DHT22;23316;50.718;7.328;2024-01-15T13:24:56;22.10;30.10
37456;DHT22;23316;50.718;7.328;2024-01-15T13:27:24;22.10;30.20
37456;DHT22;23316;50.718;7.328;2024-01-15T13:29:51;22.00;30.10
37456;DHT22;23316;50.718;7.328;2024-01-15T13:32:24;22.00;30.20
37456;DHT22;23316;50.718;7.328;2024-01-15T13:34:52;22.00;30.10
37456;DHT22;23316;50.718;7.328;2024-01-15T13:37:19;21.90;30.20
37456;DHT22;23316;50.718;7.328;2024-01-15T13:39:46;21.90;30.20
37456;DHT22;23316;50.718;7.328;2024-01-15T13:42:14;21.80;30.20
37456;DHT22;23316;50.718;7.328;2024-01-15T13:44:42;21.80;30.20
37456;DHT22;23316;50.718;7.328;2024-01-15T13:47:10;21.70;30.20
37456;DHT22;23316;50.718;7.328;2024-01-15T13:49:37;21.70;30.20
37456;DHT22;23316;50.718;7.328;2024-01-15T13:52:04;21.70;30.20
37456;DHT22;23316;50.718;7.328;2024-01-15T13:54:32;21.60;30.20
37456;DHT22;23316;50.718;7.328;2024-01-15T13:56:59;21.60;30.20
37456;DHT22;23316;50.718;7.328;2024-01-15T13:59:27;21.60;30.30
37456;DHT22;23316;50.718;7.328;2024-01-15T14:01:56;21.60;30.40
37456;DHT22;23316;50.718;7.328;2024-01-15T14:04:23;21.50;30.40
37456;DHT22;23316;50.718;7.328;2024-01-15T14:06:50;21.50;30.40
37456;DHT22;23316;50.718;7.328;2024-01-15T14:09:17;21.60;30.50
37456;DHT22;23316;50.718;7.328;2024-01-15T14:11:45;21.60;30.40
37456;DHT22;23316;50.718;7.328;2024-01-15T14:14:12;21.70;30.50
37456;DHT22;23316;50.718;7.328;2024-01-15T14:16:39;21.70;30.40
37456;DHT22;23316;50.718;7.328;2024-01-15T14:19:08;21.70;30.40
37456;DHT22;23316;50.718;7.328;2024-01-15T14:21:35;21.80;30.40
37456;DHT22;23316;50.718;7.328;2024-01-15T14:24:02;21.80;30.40
37456;DHT22;23316;50.718;7.328;2024-01-15T14:26:30;21.90;30.40
37456;DHT22;23316;50.718;7.328;2024-01-15T14:28:57;21.90;30.40
37456;DHT22;23316;50.718;7.328;2024-01-15T14:31:25;22.00;30.30
37456;DHT22;23316;50.718;7.328;2024-01-15T14:33:54;22.00;30.30
37456;DHT22;23316;50.718;7.328;2024-01-15T14:36:23;22.10;30.20
37456;DHT22;23316;50.718;7.328;2024-01-15T14:38:50;22.10;30.20
37456;DHT22;23316;50.718;7.328;2024-01-15T14:41:17;22.10;30.10
37456;DHT22;23316;50.718;7.328;2024-01-15T14:43:44;22.20;30.10
37456;DHT22;23316;50.718;7.328;2024-01-15T14:46:12;22.20;30.10
37456;DHT22;23316;50.718;7.328;2024-01-15T14:48:39;22.20;30.10
37456;DHT22;23316;50.718;7.328;2024-01-15T14:51:07;22.20;30.10
37456;DHT22;23316;50.718;7.328;2024-01-15T14:53:35;22.20;30.00
37456;DHT22;23316;50.718;7.328;2024-01-15T14:56:02;22.20;30.00
37456;DHT22;23316;50.718;7.328;2024-01-15T14:58:30;22.20;30.00
37456;DHT22;23316;50.718;7.328;2024-01-15T15:00:58;22.20;30.00
37456;DHT22;23316;50.718;7.328;2024-01-15T15:03:25;22.20;30.00
37456;DHT22;23316;50.718;7.328;2024-01-15T15:05:52;22.10;29.90
37456;DHT22;23316;50.718;7.328;2024-01-15T15:08:19;22.10;29.90
37456;DHT22;23316;50.718;7.328;2024-01-15T15:10:48;22.10;29.80
37456;DHT22;23316;50.718;7.328;2024-01-15T15:13:15;22.00;29.80
37456;DHT22;23316;50.718;7.328;2024-01-15T15:15:43;22.00;29.80
37456;DHT22;23316;50.718;7.328;2024-01-15T15:18:10;21.90;29.80
37456;DHT22;23316;50.718;7.328;2024-01-15T15:20:38;21.90;29.80
37456;DHT22;23316;50.718;7.328;2024-01-15T15:23:05;21.80;29.90
37456;DHT22;23316;50.718;7.328;2024-01-15T15:25:34;21.80;29.90
37456;DHT22;23316;50.718;7.328;2024-01-15T15:28:03;21.80;29.90
37456;DHT22;23316;50.718;7.328;2024-01-15T15:30:31;21.70;29.90
37456;DHT22;23316;50.718;7.328;2024-01-15T15:32:59;21.70;29.90
37456;DHT22;23316;50.718;7.328;2024-01-15T15:35:26;21.70;30.00
37456;DHT22;23316;50.718;7.328;2024-01-15T15:37:55;21.60;30.00